»·PEaware :: N13069 KFUL-KCCB

N13069 :: KFUL-KCCB

FLIGHT INFORMATION

Flight Status: Arrived
Operator: Privately registered:
United States
More flights under this callsign
Pilot: Anonymous 18083 (18083)
Aircraft: CESSNA 172 SKYHAWK
(C172)
More flights by this aircraft type
Origin: KFUL Fullerton Mun
United States
Destination: KCCB Cable
United States
More flights between these airports :: More routes between these airports
Route: VPLSC RNDAL
File this flight plan on PilotEdge
Remarks:
Altitude:
(Current/Filed)
3,500ft
Speed:
(Current/Filed)
108kts
Departed: 14-Sep-19 02:30 PM
Arrived: 14-Sep-19 03:12 PM
Distance/Time
Traveled:
21nm/0:42
Distance/Time
To Go:
Arrived

Flight Plot

Page will automatically refresh every two minutes.


Map Options




Map Legend


Flown Route
Filed Route
Departure Airport
Arrival Airport
Navaid (VOR, NDB)
Fix

Horizontal Profiles

Position Reports

Time Latitude Longitude Heading Altitude Ground
Speed
14-Sep-19 14:12 33.870574 -117.979330 359 93ft 0kts
14-Sep-19 14:13 33.870574 -117.979330 359 93ft 0kts
14-Sep-19 14:14 33.870574 -117.979330 359 93ft 0kts
14-Sep-19 14:15 33.870574 -117.979330 359 93ft 0kts
14-Sep-19 14:16 33.870574 -117.979330 359 93ft 0kts
14-Sep-19 14:17 33.871239 -117.979194 343 92ft 4kts
14-Sep-19 14:18 33.871970 -117.977845 70 93ft 4kts
14-Sep-19 14:19 33.872045 -117.976926 104 95ft 4kts
14-Sep-19 14:20 33.871870 -117.976954 265 95ft 0kts
14-Sep-19 14:21 33.871870 -117.976954 265 95ft 0kts
14-Sep-19 14:22 33.871870 -117.976954 265 95ft 0kts
14-Sep-19 14:23 33.871870 -117.976954 265 95ft 0kts
14-Sep-19 14:24 33.871870 -117.976954 265 95ft 0kts
14-Sep-19 14:25 33.871870 -117.976954 265 95ft 0kts
14-Sep-19 14:26 33.872091 -117.976974 76 95ft 4kts
14-Sep-19 14:27 33.872530 -117.974985 75 96ft 5kts
14-Sep-19 14:28 33.872901 -117.974839 335 96ft 6kts
14-Sep-19 14:29 33.870311 -117.991479 282 367ft 70kts
14-Sep-19 14:30 33.876974 -117.990762 80 590ft 79kts
14-Sep-19 14:31 33.871698 -117.990172 326 84ft 4kts
14-Sep-19 14:37 33.870574 -117.979330 359 93ft 0kts
14-Sep-19 14:38 33.870574 -117.979330 359 93ft 0kts
14-Sep-19 14:39 33.870574 -117.979330 359 93ft 0kts
14-Sep-19 14:40 33.870574 -117.979330 359 93ft 0kts
14-Sep-19 14:41 33.870574 -117.979330 359 93ft 0kts
14-Sep-19 14:42 33.870574 -117.979330 0 93ft 0kts
14-Sep-19 14:43 33.870574 -117.979330 0 93ft 0kts
14-Sep-19 14:44 33.870574 -117.979330 0 93ft 0kts
14-Sep-19 14:45 33.870574 -117.979330 0 93ft 0kts
14-Sep-19 14:46 33.870574 -117.979330 0 93ft 0kts
14-Sep-19 14:47 33.870915 -117.979231 22 92ft 6kts
14-Sep-19 14:48 33.872044 -117.977480 80 94ft 4kts
14-Sep-19 14:49 33.871862 -117.976926 235 95ft 0kts
14-Sep-19 14:50 33.871862 -117.976926 235 95ft 0kts
14-Sep-19 14:51 33.872213 -117.976550 66 96ft 4kts
14-Sep-19 14:52 33.872574 -117.974853 49 96ft 0kts
14-Sep-19 14:53 33.872944 -117.974891 298 96ft 6kts
14-Sep-19 14:54 33.870316 -117.993011 273 394ft 72kts
14-Sep-19 14:55 33.878969 -117.985764 94 803ft 76kts
14-Sep-19 14:56 33.883524 -117.959971 83 1335ft 81kts
14-Sep-19 14:57 33.887042 -117.933825 80 1902ft 78kts
14-Sep-19 14:58 33.889108 -117.908527 105 2441ft 73kts
14-Sep-19 14:59 33.887695 -117.885551 49 2950ft 73kts
14-Sep-19 15:00 33.903574 -117.868440 55 3364ft 88kts
14-Sep-19 15:01 33.922720 -117.841091 45 3359ft 113kts
14-Sep-19 15:02 33.945161 -117.815424 47 3433ft 110kts
14-Sep-19 15:03 33.970429 -117.793447 45 3133ft 111kts
14-Sep-19 15:04 33.994932 -117.772703 25 2512ft 107kts
14-Sep-19 15:05 34.019968 -117.753831 38 2250ft 98kts
14-Sep-19 15:06 34.045375 -117.734178 35 2027ft 103kts
14-Sep-19 15:07 34.064972 -117.711909 354 1802ft 109kts
14-Sep-19 15:08 34.090937 -117.700472 38 2063ft 99kts
14-Sep-19 15:09 34.102527 -117.673844 93 1965ft 81kts
14-Sep-19 15:10 34.113220 -117.672921 297 1671ft 69kts
14-Sep-19 15:11 34.111689 -117.687857 341 1446ft 5kts
14-Sep-19 15:12 34.112790 -117.684959 69 1446ft 15kts
14-Sep-19 15:13 34.113392 -117.683908 344 1446ft 0kts

Navigation Log

Ident Type
Flight plan parsing failed, navigation log unavailable